createdAt,value
2022-09-15T00:01:30.675Z,20.82
2022-09-15T00:03:58.872Z,20.84
2022-09-15T00:06:26.922Z,20.84
2022-09-15T00:08:56.606Z,20.80
2022-09-15T00:11:27.743Z,20.85
2022-09-15T00:13:57.584Z,20.78
2022-09-15T00:16:28.257Z,20.80
2022-09-15T00:18:56.684Z,20.78
2022-09-15T00:21:30.434Z,20.81
2022-09-15T00:24:01.578Z,20.74
2022-09-15T00:26:31.594Z,20.81
2022-09-15T00:29:01.429Z,20.83
2022-09-15T00:31:32.250Z,20.81
2022-09-15T00:34:03.849Z,20.82
2022-09-15T00:36:32.543Z,20.85
2022-09-15T00:39:02.171Z,20.92
2022-09-15T00:41:31.125Z,20.91
2022-09-15T00:44:02.656Z,20.91
2022-09-15T00:46:39.049Z,20.81
2022-09-15T00:49:10.695Z,20.87
2022-09-15T00:51:48.744Z,20.92
2022-09-15T00:54:22.987Z,20.93
2022-09-15T00:56:56.035Z,20.94
2022-09-15T00:59:28.589Z,20.85
2022-09-15T01:02:03.076Z,20.82
2022-09-15T01:04:31.257Z,20.79
2022-09-15T01:07:04.508Z,20.80
2022-09-15T01:09:39.581Z,20.82
2022-09-15T01:12:08.585Z,20.72
2022-09-15T01:14:36.953Z,20.63
2022-09-15T01:17:16.923Z,20.67
2022-09-15T01:20:43.233Z,20.71
2022-09-15T01:23:58.504Z,20.67
2022-09-15T01:27:37.847Z,20.71
2022-09-15T01:30:08.632Z,20.74
2022-09-15T01:33:09.648Z,20.80
2022-09-15T01:36:04.533Z,20.83
2022-09-15T01:38:50.273Z,20.84
2022-09-15T01:41:25.347Z,20.80
2022-09-15T01:44:01.982Z,20.85
2022-09-15T01:46:35.754Z,20.84
2022-09-15T01:49:05.962Z,20.85
2022-09-15T01:51:36.755Z,20.89
2022-09-15T01:54:07.427Z,20.88
2022-09-15T01:56:37.518Z,20.89
2022-09-15T01:59:06.032Z,20.84
2022-09-15T02:01:43.790Z,20.84
2022-09-15T02:04:18.864Z,20.86
2022-09-15T02:06:56.379Z,20.84
2022-09-15T02:09:29.744Z,20.76
2022-09-15T02:12:08.748Z,20.81
2022-09-15T02:14:52.666Z,20.78
2022-09-15T02:17:23.004Z,20.78
2022-09-15T02:19:56.391Z,20.80
2022-09-15T02:22:27.787Z,20.75
2022-09-15T02:25:03.496Z,20.71
2022-09-15T02:27:37.660Z,20.61
2022-09-15T02:30:12.623Z,20.70
2022-09-15T02:32:48.272Z,20.77
2022-09-15T02:35:17.877Z,20.75
2022-09-15T02:37:46.644Z,20.73
2022-09-15T02:40:14.904Z,20.74
2022-09-15T02:42:53.659Z,20.70
2022-09-15T02:45:22.179Z,20.73
2022-09-15T02:47:51.717Z,20.82
2022-09-15T02:50:20.597Z,20.78
2022-09-15T02:52:48.586Z,20.82
2022-09-15T02:55:16.832Z,20.81
2022-09-15T02:57:44.828Z,20.85
2022-09-15T03:00:15.854Z,20.84
2022-09-15T03:02:46.485Z,20.83
2022-09-15T03:05:18.522Z,20.89
2022-09-15T03:07:46.536Z,20.85
2022-09-15T03:10:16.109Z,20.88
2022-09-15T03:12:47.531Z,20.89
2022-09-15T03:15:17.564Z,20.87
2022-09-15T03:17:47.419Z,20.86
2022-09-15T03:20:20.043Z,20.87
2022-09-15T03:22:48.403Z,20.81
2022-09-15T03:25:17.438Z,20.83
2022-09-15T03:27:45.511Z,20.81
2022-09-15T03:30:16.875Z,20.80
2022-09-15T03:32:44.869Z,20.75
2022-09-15T03:35:12.873Z,20.80
2022-09-15T03:37:42.233Z,20.78
2022-09-15T03:40:11.415Z,20.77
2022-09-15T03:42:39.531Z,20.72
2022-09-15T03:45:08.777Z,20.65
2022-09-15T03:47:36.795Z,20.53
2022-09-15T03:50:06.718Z,20.55
2022-09-15T03:52:34.670Z,20.61
2022-09-15T03:55:04.102Z,20.52
2022-09-15T03:57:32.219Z,20.52
2022-09-15T04:00:00.255Z,20.45
2022-09-15T04:02:28.258Z,20.46
2022-09-15T04:04:56.238Z,20.46
2022-09-15T04:07:25.178Z,20.44
2022-09-15T04:09:53.267Z,20.43
2022-09-15T04:12:22.579Z,20.48
2022-09-15T04:14:50.524Z,20.54
2022-09-15T04:17:18.465Z,20.53
2022-09-15T04:19:46.460Z,20.48
2022-09-15T04:22:17.805Z,20.56
2022-09-15T04:24:47.970Z,20.59
2022-09-15T04:27:16.693Z,20.53
2022-09-15T04:29:46.467Z,20.51
2022-09-15T04:32:14.465Z,20.47
2022-09-15T04:34:42.407Z,20.46
2022-09-15T04:37:10.856Z,20.47
2022-09-15T04:39:38.854Z,20.50
2022-09-15T04:42:07.750Z,20.55
2022-09-15T04:44:36.054Z,20.58
2022-09-15T04:47:06.196Z,20.61
2022-09-15T04:49:34.455Z,20.63
2022-09-15T04:52:06.617Z,20.57
2022-09-15T04:54:37.052Z,20.60
2022-09-15T04:57:05.416Z,20.58
2022-09-15T04:59:33.664Z,20.60
2022-09-15T05:02:01.702Z,20.55
2022-09-15T05:04:31.194Z,20.57
2022-09-15T05:06:59.214Z,20.54
2022-09-15T05:09:29.460Z,20.42
2022-09-15T05:11:57.666Z,20.44
2022-09-15T05:14:25.695Z,20.52
2022-09-15T05:16:53.722Z,20.43
2022-09-15T05:19:21.809Z,20.49
2022-09-15T05:21:51.207Z,20.59
2022-09-15T05:24:19.255Z,20.48
2022-09-15T05:26:47.193Z,20.51
2022-09-15T05:29:15.185Z,20.56
2022-09-15T05:31:43.275Z,20.60
2022-09-15T05:34:11.661Z,20.53
2022-09-15T05:36:39.698Z,20.45
2022-09-15T05:39:08.997Z,20.50
2022-09-15T05:41:36.963Z,20.53
2022-09-15T05:44:04.936Z,20.53
2022-09-15T05:46:33.008Z,20.45
2022-09-15T05:49:25.208Z,20.50
2022-09-15T05:51:54.083Z,20.42
2022-09-15T05:54:23.466Z,20.42
2022-09-15T05:56:51.512Z,20.51
2022-09-15T05:59:19.739Z,20.51
2022-09-15T06:01:48.242Z,20.52
2022-09-15T06:04:16.227Z,20.53
2022-09-15T06:06:44.210Z,20.50
2022-09-15T06:09:12.187Z,20.59
2022-09-15T06:11:41.498Z,20.65
2022-09-15T06:14:09.702Z,20.59
2022-09-15T06:16:38.025Z,20.56
2022-09-15T06:19:06.407Z,20.57
2022-09-15T06:21:34.725Z,20.55
2022-09-15T06:24:06.845Z,20.63
2022-09-15T06:26:35.779Z,20.62
2022-09-15T06:29:06.331Z,20.56
2022-09-15T06:31:35.701Z,20.46
2022-09-15T06:34:05.417Z,20.48
2022-09-15T06:36:34.099Z,20.43
2022-09-15T06:39:02.770Z,20.38
2022-09-15T06:41:52.599Z,20.37
2022-09-15T06:44:21.194Z,20.34
2022-09-15T06:46:49.803Z,20.26
2022-09-15T06:49:18.020Z,20.37
2022-09-15T06:51:46.398Z,20.36
2022-09-15T06:54:16.337Z,20.37
2022-09-15T06:56:45.053Z,20.33
2022-09-15T06:59:15.507Z,20.35
2022-09-15T07:01:45.001Z,20.33
2022-09-15T07:04:12.941Z,20.35
2022-09-15T07:06:41.386Z,20.34
2022-09-15T07:09:09.530Z,20.32
2022-09-15T07:11:37.499Z,20.38
2022-09-15T07:14:05.499Z,20.34
2022-09-15T07:16:34.004Z,20.30
2022-09-15T07:19:03.647Z,20.32
2022-09-15T07:21:31.645Z,20.37
2022-09-15T07:24:02.696Z,20.39
2022-09-15T07:26:33.801Z,20.35
2022-09-15T07:29:05.248Z,20.36
2022-09-15T07:31:36.130Z,20.38
2022-09-15T07:34:06.203Z,20.37
2022-09-15T07:36:34.585Z,20.40
2022-09-15T07:39:06.511Z,20.46
2022-09-15T07:41:35.086Z,20.44
2022-09-15T07:44:04.743Z,20.41
2022-09-15T07:46:34.367Z,20.37
2022-09-15T07:49:03.744Z,20.43
2022-09-15T07:51:33.098Z,20.39
2022-09-15T07:54:01.658Z,20.38
2022-09-15T07:56:29.857Z,20.36
2022-09-15T07:58:58.405Z,20.30
2022-09-15T08:01:27.056Z,20.26
2022-09-15T08:03:55.223Z,20.29
2022-09-15T08:06:26.469Z,20.37
2022-09-15T08:09:00.348Z,20.25
2022-09-15T08:11:31.556Z,20.24
2022-09-15T08:14:02.997Z,20.30
2022-09-15T08:16:31.496Z,20.29
2022-09-15T08:19:01.176Z,20.26
2022-09-15T08:21:29.543Z,20.32
2022-09-15T08:24:01.166Z,20.36
2022-09-15T08:26:30.866Z,20.38
2022-09-15T08:28:59.389Z,20.31
2022-09-15T08:31:27.529Z,20.37
2022-09-15T08:33:56.898Z,20.34
2022-09-15T08:36:28.273Z,20.39
2022-09-15T08:38:57.873Z,20.44
2022-09-15T08:41:30.614Z,20.38
2022-09-15T08:44:05.659Z,20.38
2022-09-15T08:46:41.411Z,20.43
2022-09-15T08:49:30.550Z,20.42
2022-09-15T08:52:10.954Z,20.44
2022-09-15T08:54:40.571Z,20.45
2022-09-15T08:57:17.822Z,20.56
2022-09-15T08:59:45.836Z,20.49
2022-09-15T09:03:05.662Z,20.53
2022-09-15T09:05:53.627Z,20.59
2022-09-15T09:09:04.898Z,20.59
2022-09-15T09:11:54.314Z,20.64
2022-09-15T09:14:34.671Z,20.70
2022-09-15T09:17:25.011Z,20.63
2022-09-15T09:20:31.841Z,20.54
2022-09-15T09:23:03.463Z,20.50
2022-09-15T09:25:31.485Z,20.49
2022-09-15T09:28:04.513Z,20.43
2022-09-15T09:30:35.909Z,20.41
2022-09-15T09:33:23.015Z,20.41
2022-09-15T09:35:52.911Z,20.33
2022-09-15T09:38:25.190Z,20.32
2022-09-15T09:40:55.740Z,20.25
2022-09-15T09:43:30.070Z,20.08
2022-09-15T09:45:59.211Z,20.05
2022-09-15T09:48:29.835Z,19.97
2022-09-15T09:50:58.199Z,19.93
2022-09-15T09:53:30.978Z,19.88
2022-09-15T09:56:18.932Z,19.85
2022-09-15T09:58:48.655Z,19.82
2022-09-15T10:01:19.912Z,19.80
2022-09-15T10:03:48.369Z,19.75
2022-09-15T10:06:20.627Z,19.72
2022-09-15T10:08:58.342Z,19.71
2022-09-15T10:11:43.137Z,19.62
2022-09-15T10:14:22.829Z,19.66
2022-09-15T10:17:02.424Z,19.61
2022-09-15T10:19:34.222Z,19.59
2022-09-15T10:22:03.992Z,19.58
2022-09-15T10:24:37.307Z,19.54
2022-09-15T10:27:26.312Z,19.51
2022-09-15T10:29:57.036Z,19.45
2022-09-15T10:32:28.950Z,19.46
2022-09-15T10:35:07.366Z,19.48
2022-09-15T10:37:49.023Z,19.42
2022-09-15T10:40:34.531Z,19.44
2022-09-15T10:43:25.624Z,19.31
2022-09-15T10:46:04.855Z,19.35
2022-09-15T10:48:44.881Z,19.30
2022-09-15T10:51:33.382Z,19.23
2022-09-15T10:54:23.035Z,19.18
2022-09-15T10:56:58.859Z,19.25
2022-09-15T10:59:44.200Z,19.18
2022-09-15T11:02:56.449Z,19.11
2022-09-15T11:05:37.161Z,18.99
2022-09-15T11:08:33.080Z,18.97
2022-09-15T11:11:13.671Z,18.95
2022-09-15T11:13:56.481Z,18.91
2022-09-15T11:16:41.564Z,18.88
2022-09-15T11:19:34.159Z,18.80
2022-09-15T11:22:08.208Z,18.82
2022-09-15T11:24:45.273Z,18.72
2022-09-15T11:27:21.947Z,18.73
2022-09-15T11:30:05.318Z,18.69
2022-09-15T11:32:41.684Z,18.72
2022-09-15T11:35:43.341Z,18.67
2022-09-15T11:38:24.192Z,18.68
2022-09-15T11:40:58.762Z,18.67
2022-09-15T11:43:35.527Z,18.75
2022-09-15T11:46:12.387Z,18.65
2022-09-15T11:48:44.939Z,18.68
2022-09-15T11:51:17.587Z,18.64
2022-09-15T11:53:52.617Z,18.65
2022-09-15T11:56:28.192Z,18.66
2022-09-15T11:59:08.770Z,18.71
2022-09-15T12:01:48.256Z,18.72
2022-09-15T12:04:23.026Z,18.73
2022-09-15T12:07:01.305Z,18.71
2022-09-15T12:09:29.598Z,18.74
2022-09-15T12:12:02.731Z,18.79
2022-09-15T12:14:36.942Z,18.75
2022-09-15T12:17:09.782Z,18.85
2022-09-15T12:19:54.495Z,18.81
2022-09-15T12:22:29.494Z,18.82
2022-09-15T12:25:04.455Z,18.77
2022-09-15T12:27:32.514Z,18.81
2022-09-15T12:30:02.014Z,18.87
2022-09-15T12:32:31.963Z,18.86
2022-09-15T12:35:12.810Z,18.73
2022-09-15T12:37:47.207Z,18.75
2022-09-15T12:40:37.684Z,18.85
2022-09-15T12:43:20.620Z,18.88
2022-09-15T12:45:57.849Z,18.78
2022-09-15T12:48:30.077Z,18.66
2022-09-15T12:51:02.519Z,18.75
2022-09-15T12:56:11.639Z,18.72
2022-09-15T12:58:45.748Z,18.72
2022-09-15T13:01:49.505Z,18.75
2022-09-15T13:04:55.509Z,18.82
2022-09-15T13:07:53.724Z,18.86
2022-09-15T13:10:42.219Z,18.76
2022-09-15T13:13:33.333Z,18.71
2022-09-15T13:16:03.390Z,18.75
2022-09-15T13:18:33.156Z,18.71
2022-09-15T13:21:08.632Z,18.80
2022-09-15T13:23:42.608Z,18.76
2022-09-15T13:26:22.552Z,18.72
2022-09-15T13:28:55.625Z,18.75
2022-09-15T13:31:39.816Z,18.86
2022-09-15T13:35:09.034Z,18.93
2022-09-15T13:38:29.138Z,19.08
2022-09-15T13:41:42.801Z,19.11
2022-09-15T13:44:56.029Z,19.08
2022-09-15T13:47:46.183Z,19.01
2022-09-15T13:50:21.369Z,19.08
2022-09-15T13:53:27.068Z,19.11
2022-09-15T13:55:55.573Z,19.16
2022-09-15T14:01:17.050Z,19.22
2022-09-15T14:03:50.274Z,19.21
2022-09-15T14:06:22.270Z,19.24
2022-09-15T14:08:54.148Z,19.22
2022-09-15T14:11:30.846Z,19.22
2022-09-15T14:14:01.428Z,19.33
2022-09-15T14:16:36.258Z,19.39
2022-09-15T14:19:23.959Z,19.44
2022-09-15T14:21:56.207Z,19.52
2022-09-15T14:24:30.511Z,19.57
2022-09-15T14:27:03.324Z,19.56
2022-09-15T14:29:33.023Z,19.60
2022-09-15T14:32:03.914Z,19.67
2022-09-15T14:34:36.580Z,19.74
2022-09-15T14:37:08.808Z,19.75
2022-09-15T14:39:37.707Z,19.81
2022-09-15T14:42:22.826Z,19.82
2022-09-15T14:47:43.704Z,19.93
2022-09-15T14:50:17.366Z,19.95
2022-09-15T14:52:49.403Z,19.96
2022-09-15T14:55:23.633Z,19.94
2022-09-15T14:58:02.614Z,19.95
2022-09-15T15:00:38.330Z,19.92
2022-09-15T15:03:22.219Z,19.90
2022-09-15T15:06:02.654Z,19.91
2022-09-15T15:08:37.902Z,19.96
2022-09-15T15:11:10.663Z,19.89
2022-09-15T15:13:42.202Z,19.85
2022-09-15T15:16:21.487Z,19.85
2022-09-15T15:18:51.242Z,19.90
2022-09-15T15:21:41.618Z,19.92
2022-09-15T15:24:18.378Z,19.94
2022-09-15T15:26:47.699Z,19.93
2022-09-15T15:29:43.311Z,19.90
2022-09-15T15:32:15.985Z,19.96
2022-09-15T15:34:51.991Z,20.01
2022-09-15T15:37:28.011Z,20.00
2022-09-15T15:39:57.276Z,19.92
2022-09-15T15:42:28.440Z,19.96
2022-09-15T15:45:05.186Z,19.98
2022-09-15T15:47:37.831Z,19.96
2022-09-15T15:50:14.214Z,19.92
2022-09-15T15:52:43.624Z,19.93
2022-09-15T15:55:15.859Z,20.00
2022-09-15T15:57:45.577Z,19.88
2022-09-15T16:00:22.091Z,19.83
2022-09-15T16:02:53.118Z,19.84
2022-09-15T16:05:26.208Z,19.87
2022-09-15T16:07:57.072Z,19.88
2022-09-15T16:10:29.935Z,19.91
2022-09-15T16:12:58.048Z,19.85
2022-09-15T16:15:26.048Z,19.81
2022-09-15T16:17:55.393Z,19.84
2022-09-15T16:20:25.071Z,19.90
2022-09-15T16:22:53.297Z,19.89
2022-09-15T16:25:31.834Z,19.86
2022-09-15T16:28:00.493Z,19.83
2022-09-15T16:30:28.811Z,19.85
2022-09-15T16:32:58.534Z,19.85
2022-09-15T16:35:35.994Z,19.82
2022-09-15T16:38:04.409Z,19.78
2022-09-15T16:40:32.458Z,19.75
2022-09-15T16:43:00.850Z,19.73
2022-09-15T16:45:36.523Z,19.68
2022-09-15T16:48:09.759Z,19.72
2022-09-15T16:50:40.163Z,19.63
2022-09-15T16:53:15.752Z,19.59
2022-09-15T16:55:47.164Z,19.62
2022-09-15T16:58:17.915Z,19.60
2022-09-15T17:00:48.213Z,19.62
2022-09-15T17:03:21.259Z,19.57
2022-09-15T17:05:51.133Z,19.54
2022-09-15T17:08:21.330Z,19.50
2022-09-15T17:10:50.258Z,19.51
2022-09-15T17:13:23.963Z,19.52
2022-09-15T17:15:54.966Z,19.48
2022-09-15T17:18:24.926Z,19.51
2022-09-15T17:20:53.303Z,19.49
2022-09-15T17:23:24.550Z,19.50
2022-09-15T17:25:57.375Z,19.52
2022-09-15T17:28:28.761Z,19.54
2022-09-15T17:31:00.330Z,19.52
2022-09-15T17:33:32.400Z,19.50
2022-09-15T17:36:01.327Z,19.48
2022-09-15T17:38:29.316Z,19.45
2022-09-15T17:40:57.286Z,19.40
2022-09-15T17:43:27.639Z,19.43
2022-09-15T17:45:56.219Z,19.35
2022-09-15T17:48:25.354Z,19.36
2022-09-15T17:50:54.823Z,19.31
2022-09-15T17:53:26.559Z,19.28
2022-09-15T17:55:56.328Z,19.28
2022-09-15T17:58:26.491Z,19.29
2022-09-15T18:00:55.335Z,19.24
2022-09-15T18:03:27.609Z,19.25
2022-09-15T18:05:59.148Z,19.23
2022-09-15T18:08:28.742Z,19.16
2022-09-15T18:10:57.175Z,19.18
2022-09-15T18:13:27.875Z,19.23
2022-09-15T18:15:56.567Z,19.18
2022-09-15T18:18:27.005Z,19.13
2022-09-15T18:20:57.825Z,19.10
2022-09-15T18:23:29.646Z,19.05
2022-09-15T18:25:58.235Z,19.04
2022-09-15T18:28:26.287Z,19.05
2022-09-15T18:30:54.326Z,19.09
2022-09-15T18:33:25.182Z,19.09
2022-09-15T18:35:56.636Z,19.04
2022-09-15T18:38:25.826Z,19.11
2022-09-15T18:40:56.123Z,19.06
2022-09-15T18:43:26.817Z,19.02
2022-09-15T18:45:59.242Z,18.98
2022-09-15T18:48:27.364Z,18.92
2022-09-15T18:50:57.186Z,18.94
2022-09-15T18:53:25.429Z,18.81
2022-09-15T18:55:53.407Z,18.91
2022-09-15T18:58:22.383Z,18.84
2022-09-15T19:00:50.483Z,18.77
2022-09-15T19:03:18.563Z,18.68
2022-09-15T19:05:46.569Z,18.68
2022-09-15T19:08:15.881Z,18.62
2022-09-15T19:10:44.179Z,18.65
2022-09-15T19:13:14.057Z,18.67
2022-09-15T19:15:43.680Z,18.57
2022-09-15T19:18:11.769Z,18.51
2022-09-15T19:20:40.138Z,18.45
2022-09-15T19:23:09.332Z,18.42
2022-09-15T19:25:41.323Z,18.34
2022-09-15T19:28:09.523Z,18.33
2022-09-15T19:30:37.626Z,18.30
2022-09-15T19:33:05.872Z,18.40
2022-09-15T19:35:33.866Z,18.31
2022-09-15T19:38:01.861Z,18.30
2022-09-15T19:40:29.894Z,18.30
2022-09-15T19:42:59.258Z,18.22
2022-09-15T19:45:27.238Z,18.22
2022-09-15T19:47:55.291Z,18.14
2022-09-15T19:50:23.592Z,18.19
2022-09-15T19:52:53.412Z,18.11
2022-09-15T19:55:23.405Z,18.03
2022-09-15T19:57:51.538Z,18.03
2022-09-15T20:00:21.416Z,18.03
2022-09-15T20:02:49.810Z,18.11
2022-09-15T20:05:18.131Z,17.99
2022-09-15T20:07:48.000Z,17.96
2022-09-15T20:10:16.717Z,17.87
2022-09-15T20:12:44.678Z,17.85
2022-09-15T20:15:12.707Z,17.84
2022-09-15T20:17:42.288Z,17.84
2022-09-15T20:20:12.377Z,17.80
2022-09-15T20:22:40.414Z,17.75
2022-09-15T20:25:09.152Z,17.80
2022-09-15T20:27:37.115Z,17.70
2022-09-15T20:30:07.009Z,17.66
2022-09-15T20:32:34.994Z,17.69
2022-09-15T20:35:04.871Z,17.83
2022-09-15T20:37:37.433Z,17.71
2022-09-15T20:40:07.815Z,17.69
2022-09-15T20:42:36.093Z,17.62
2022-09-15T20:45:05.355Z,17.62
2022-09-15T20:47:33.433Z,17.56
2022-09-15T20:50:01.398Z,17.55
2022-09-15T20:52:37.415Z,17.55
2022-09-15T20:55:07.216Z,17.47
2022-09-15T20:57:35.316Z,17.54
2022-09-15T21:00:06.044Z,17.58
2022-09-15T21:02:34.134Z,17.56
2022-09-15T21:05:02.172Z,17.48
2022-09-15T21:07:30.175Z,17.46
2022-09-15T21:09:59.455Z,17.43
2022-09-15T21:12:29.601Z,17.48
2022-09-15T21:14:57.836Z,17.35
2022-09-15T21:17:26.116Z,17.37
2022-09-15T21:19:54.160Z,17.42
2022-09-15T21:22:22.125Z,17.37
2022-09-15T21:24:50.471Z,17.35
2022-09-15T21:27:29.975Z,17.30
2022-09-15T21:29:58.330Z,17.34
2022-09-15T21:32:26.312Z,17.33
2022-09-15T21:34:55.778Z,17.26
2022-09-15T21:37:23.940Z,17.06
2022-09-15T21:39:51.950Z,17.09
2022-09-15T21:42:22.396Z,17.06
2022-09-15T21:44:50.807Z,17.00
2022-09-15T21:47:18.970Z,16.96
2022-09-15T21:49:46.942Z,17.00
2022-09-15T21:52:15.014Z,16.97
2022-09-15T21:54:43.324Z,17.01
2022-09-15T21:57:11.737Z,16.96
2022-09-15T21:59:41.783Z,16.97
2022-09-15T22:02:11.546Z,16.93
2022-09-15T22:04:39.849Z,16.91
2022-09-15T22:07:09.743Z,16.95
2022-09-15T22:09:38.628Z,16.92
2022-09-15T22:12:07.283Z,16.98
2022-09-15T22:14:35.419Z,16.88
2022-09-15T22:17:05.624Z,16.92
2022-09-15T22:19:33.701Z,16.88
2022-09-15T22:22:02.083Z,16.83
2022-09-15T22:24:30.162Z,16.86
2022-09-15T22:26:58.159Z,16.77
2022-09-15T22:29:26.160Z,16.81
2022-09-15T22:31:54.379Z,16.85
2022-09-15T22:34:24.170Z,16.84
2022-09-15T22:36:52.119Z,16.90
2022-09-15T22:39:20.104Z,16.81
2022-09-15T22:41:48.053Z,16.83
2022-09-15T22:44:21.352Z,16.85
2022-09-15T22:46:51.213Z,16.78
2022-09-15T22:49:19.752Z,16.73
2022-09-15T22:51:49.061Z,16.79
2022-09-15T22:54:17.267Z,16.83
2022-09-15T22:56:46.883Z,16.93
2022-09-15T22:59:14.865Z,16.80
2022-09-15T23:01:42.897Z,16.89
2022-09-15T23:04:11.005Z,16.91
2022-09-15T23:06:39.014Z,16.94
2022-09-15T23:09:11.242Z,16.99
2022-09-15T23:11:40.693Z,17.05
2022-09-15T23:14:13.107Z,17.12
2022-09-15T23:16:41.786Z,17.22
2022-09-15T23:19:12.234Z,17.15
2022-09-15T23:21:40.853Z,17.06
2022-09-15T23:24:12.214Z,17.07
2022-09-15T23:26:41.327Z,17.18
2022-09-15T23:29:10.000Z,17.10
2022-09-15T23:31:38.281Z,17.06
2022-09-15T23:34:06.334Z,17.08
2022-09-15T23:36:34.302Z,17.14
2022-09-15T23:39:02.384Z,17.04
2022-09-15T23:41:31.793Z,17.02
2022-09-15T23:43:59.889Z,17.11
2022-09-15T23:46:27.984Z,17.15
2022-09-15T23:48:56.015Z,17.19
2022-09-15T23:51:24.051Z,17.31
2022-09-15T23:53:52.126Z,17.21
2022-09-15T23:56:20.150Z,17.24
2022-09-15T23:58:49.486Z,17.22
